Time;durP1;ratioP1;P1;durP2;ratioP2;P2;SDS_P1;SDS_P2;PMS_P1;PMS_P2;Temp;Humidity;BMP_temperature;BMP_pressure;BME280_temperature;BME280_humidity;BME280_pressure;Samples;Min_cycle;Max_cycle;Signal;HPM_P1;HPM_P2
2023/03/05 00:00:21;;;;;;;;;;;;;;;8.11;61.96;102149.06;7363061;19;19919;-61
2023/03/05 00:02:48;;;;;;;;;;;;;;;8.12;61.27;102145.50;7358794;19;20317;-60
2023/03/05 00:05:15;;;;;;;;;;;;;;;8.08;61.64;102136.97;7364475;19;20332;-59
2023/03/05 00:07:42;;;;;;;;;;;;;;;8.07;61.84;102137.09;7362502;19;19927;-61
2023/03/05 00:10:19;;;;;;;;;;;;;;;8.06;61.50;102136.25;7363500;19;19918;-59
2023/03/05 00:12:47;;;;;;;;;;;;;;;8.07;62.21;102129.25;7361637;19;19922;-62
2023/03/05 00:15:14;;;;;;;;;;;;;;;8.07;61.56;102135.31;7365305;19;19946;-60
2023/03/05 00:17:41;;;;;;;;;;;;;;;8.05;62.61;102129.34;7364164;19;19971;-60
2023/03/05 00:20:13;;;;;;;;;;;;;;;8.02;62.36;102121.69;7364445;19;19951;-60
2023/03/05 00:22:40;;;;;;;;;;;;;;;8.01;62.05;102125.25;7359137;19;19990;-62
2023/03/05 00:25:07;;;;;;;;;;;;;;;8.01;62.18;102127.88;7362170;19;20001;-61
2023/03/05 00:27:35;;;;;;;;;;;;;;;8.02;62.18;102119.06;7360638;19;19977;-63
2023/03/05 00:30:02;;;;;;;;;;;;;;;8.02;61.16;102121.69;7359358;19;19996;-60
2023/03/05 00:32:29;;;;;;;;;;;;;;;8.00;61.50;102122.72;7359253;19;20319;-61
2023/03/05 00:34:57;;;;;;;;;;;;;;;7.97;61.45;102109.84;7362237;19;20380;-61
2023/03/05 00:37:24;;;;;;;;;;;;;;;7.94;62.25;102116.13;7362099;19;19923;-62
2023/03/05 00:39:51;;;;;;;;;;;;;;;7.92;62.58;102109.31;7358671;19;20126;-62
2023/03/05 00:42:18;;;;;;;;;;;;;;;7.92;62.68;102111.94;7360552;19;20734;-59
2023/03/05 00:44:45;;;;;;;;;;;;;;;7.93;62.17;102114.44;7359191;19;20403;-61
2023/03/05 00:47:12;;;;;;;;;;;;;;;7.93;62.11;102105.72;7359643;19;20257;-55
2023/03/05 00:49:39;;;;;;;;;;;;;;;7.92;62.39;102101.44;7359537;19;20187;-61
2023/03/05 00:52:06;;;;;;;;;;;;;;;7.90;62.01;102100.69;7353518;19;19986;-60
2023/03/05 00:54:33;;;;;;;;;;;;;;;7.90;61.99;102101.53;7359549;19;19919;-56
2023/03/05 00:57:01;;;;;;;;;;;;;;;7.91;62.11;102099.78;7362276;19;19919;-57
2023/03/05 00:59:31;;;;;;;;;;;;;;;7.89;62.26;102093.78;7356417;19;20367;-61
2023/03/05 01:01:58;;;;;;;;;;;;;;;7.89;62.14;102093.78;7357337;19;19915;-61
2023/03/05 01:04:26;;;;;;;;;;;;;;;7.90;62.35;102087.59;7360180;19;20329;-62
2023/03/05 01:06:53;;;;;;;;;;;;;;;7.89;62.35;102092.00;7362075;19;19970;-62
2023/03/05 01:09:20;;;;;;;;;;;;;;;7.86;61.99;102084.38;7361912;19;19950;-62
2023/03/05 01:11:47;;;;;;;;;;;;;;;7.85;62.09;102085.31;7359131;19;19918;-62
2023/03/05 01:14:15;;;;;;;;;;;;;;;7.82;62.47;102082.06;7359609;19;19969;-64
2023/03/05 01:16:42;;;;;;;;;;;;;;;7.81;62.52;102083.84;7356826;19;20310;-58
2023/03/05 01:19:09;;;;;;;;;;;;;;;7.81;62.21;102081.22;7357381;19;19915;-66
2023/03/05 01:21:36;;;;;;;;;;;;;;;7.79;62.34;102077.00;7362388;19;19930;-59
2023/03/05 01:24:03;;;;;;;;;;;;;;;7.78;62.81;102072.69;7360224;19;20313;-62
2023/03/05 01:26:30;;;;;;;;;;;;;;;7.79;62.50;102064.75;7360958;19;19954;-58
2023/03/05 01:28:57;;;;;;;;;;;;;;;7.79;62.33;102070.00;7360876;19;20051;-59
2023/03/05 01:31:24;;;;;;;;;;;;;;;7.76;61.88;102064.97;7356913;19;20316;-57
2023/03/05 01:33:52;;;;;;;;;;;;;;;7.76;62.28;102061.50;7359969;19;20359;-60
2023/03/05 01:36:19;;;;;;;;;;;;;;;7.73;62.28;102055.53;7359890;19;20338;-60
2023/03/05 01:38:46;;;;;;;;;;;;;;;7.76;63.00;102049.25;7357330;19;19922;-58
2023/03/05 01:41:15;;;;;;;;;;;;;;;7.72;62.33;102051.22;7358385;19;20012;-57
2023/03/05 01:43:42;;;;;;;;;;;;;;;7.76;62.42;102043.16;7357520;19;20030;-60
2023/03/05 01:46:20;;;;;;;;;;;;;;;7.71;62.05;102044.34;7359156;19;19938;-60
2023/03/05 01:48:50;;;;;;;;;;;;;;;7.68;61.74;102036.66;7358077;19;19929;-61
2023/03/05 01:51:18;;;;;;;;;;;;;;;7.66;62.00;102027.25;7360056;19;19925;-60
2023/03/05 01:53:46;;;;;;;;;;;;;;;7.66;62.95;102027.25;7357820;19;21592;-58
2023/03/05 01:56:14;;;;;;;;;;;;;;;7.67;63.31;102031.50;7358001;19;19915;-60
2023/03/05 01:58:41;;;;;;;;;;;;;;;7.64;62.93;102016.88;7360304;19;19926;-59
2023/03/05 02:01:08;;;;;;;;;;;;;;;7.65;62.86;102026.41;7358135;19;20105;-57
2023/03/05 02:03:35;;;;;;;;;;;;;;;7.66;64.31;102012.38;7357440;19;20541;-62
2023/03/05 02:06:03;;;;;;;;;;;;;;;7.67;63.31;102024.50;7359400;19;19923;-61
2023/03/05 02:08:30;;;;;;;;;;;;;;;7.67;63.59;102010.56;7359329;19;19921;-62
2023/03/05 02:10:59;;;;;;;;;;;;;;;7.64;62.27;102013.41;7359660;19;20411;-62
2023/03/05 02:13:28;;;;;;;;;;;;;;;7.64;62.81;102005.53;7357374;19;19998;-59
2023/03/05 02:15:57;;;;;;;;;;;;;;;7.62;62.41;102000.41;7358271;19;19915;-60
2023/03/05 02:18:24;;;;;;;;;;;;;;;7.64;62.65;102000.31;7357514;19;20017;-61
2023/03/05 02:20:53;;;;;;;;;;;;;;;7.62;61.95;102002.19;7361478;19;19915;-60
2023/03/05 02:23:21;;;;;;;;;;;;;;;7.63;62.95;101998.63;7354504;19;19990;-60
2023/03/05 02:25:48;;;;;;;;;;;;;;;7.62;62.86;101991.72;7360750;19;20471;-62
2023/03/05 02:28:16;;;;;;;;;;;;;;;7.62;62.19;101992.53;7357266;19;19931;-61
2023/03/05 02:30:43;;;;;;;;;;;;;;;7.63;62.53;101988.16;7356321;19;19933;-64
2023/03/05 02:33:12;;;;;;;;;;;;;;;7.60;63.07;101993.59;7361089;19;20571;-59
2023/03/05 02:35:39;;;;;;;;;;;;;;;7.57;64.17;101983.31;7363583;19;19994;-61
2023/03/05 02:38:06;;;;;;;;;;;;;;;7.56;63.81;101985.13;7365313;19;20031;-65
2023/03/05 02:40:33;;;;;;;;;;;;;;;7.57;62.99;101978.94;7363187;19;20415;-61
2023/03/05 02:43:00;;;;;;;;;;;;;;;7.60;62.49;101970.88;7362302;19;20023;-61
2023/03/05 02:45:27;;;;;;;;;;;;;;;7.61;62.33;101976.97;7364696;19;20328;-60
2023/03/05 02:47:54;;;;;;;;;;;;;;;7.60;61.79;101965.66;7364755;19;19945;-62
2023/03/05 02:50:21;;;;;;;;;;;;;;;7.59;61.88;101970.97;7365542;19;20242;-59
2023/03/05 02:52:48;;;;;;;;;;;;;;;7.57;62.56;101963.22;7360898;19;20328;-60
2023/03/05 02:55:16;;;;;;;;;;;;;;;7.57;62.49;101954.53;7367146;19;20005;-62
2023/03/05 02:57:43;;;;;;;;;;;;;;;7.54;62.95;101957.38;7362680;19;19982;-59
2023/03/05 03:00:10;;;;;;;;;;;;;;;7.51;63.76;101955.81;7365712;19;20019;-61
2023/03/05 03:02:37;;;;;;;;;;;;;;;7.49;63.36;101948.97;7361189;19;20102;-57
2023/03/05 03:05:05;;;;;;;;;;;;;;;7.44;62.96;101943.22;7366257;19;19974;-62
2023/03/05 03:07:34;;;;;;;;;;;;;;;7.44;63.15;101940.59;7361284;19;19932;-61
2023/03/05 03:10:02;;;;;;;;;;;;;;;7.42;62.72;101937.25;7364402;19;19925;-58
2023/03/05 03:12:29;;;;;;;;;;;;;;;7.42;63.42;101932.84;7362871;19;19918;-61
2023/03/05 03:14:56;;;;;;;;;;;;;;;7.44;62.42;101933.59;7365389;19;19961;-61
2023/03/05 03:17:23;;;;;;;;;;;;;;;7.44;62.87;101930.97;7364695;19;20553;-61
2023/03/05 03:19:51;;;;;;;;;;;;;;;7.43;63.22;101929.28;7367273;19;21143;-61
2023/03/05 03:22:18;;;;;;;;;;;;;;;7.43;64.71;101924.06;7361843;19;20449;-60
2023/03/05 03:24:45;;;;;;;;;;;;;;;7.43;66.43;101910.97;7365221;19;19926;-61
2023/03/05 03:27:12;;;;;;;;;;;;;;;7.43;66.01;101910.97;7364171;19;19971;-60
2023/03/05 03:29:39;;;;;;;;;;;;;;;7.40;65.46;101903.34;7363602;19;20500;-62
2023/03/05 03:32:07;;;;;;;;;;;;;;;7.40;63.75;101899.88;7361790;19;19918;-61
2023/03/05 03:34:34;;;;;;;;;;;;;;;7.41;62.74;101905.03;7364129;19;19929;-61
2023/03/05 03:37:01;;;;;;;;;;;;;;;7.42;62.53;101892.72;7363274;19;19935;-54
2023/03/05 03:39:28;;;;;;;;;;;;;;;7.44;62.80;101890.88;7363946;19;19927;-60
2023/03/05 03:41:55;;;;;;;;;;;;;;;7.42;62.08;101901.44;7363519;19;19948;-57
2023/03/05 03:44:22;;;;;;;;;;;;;;;7.42;62.08;101898.81;7357016;19;19951;-59
2023/03/05 03:46:50;;;;;;;;;;;;;;;7.38;62.96;101888.66;7356773;19;19937;-61
2023/03/05 03:49:19;;;;;;;;;;;;;;;7.34;63.77;101880.19;7366178;19;19926;-61
2023/03/05 03:51:47;;;;;;;;;;;;;;;7.36;63.62;101890.56;7363301;19;20034;-58
2023/03/05 03:54:14;;;;;;;;;;;;;;;7.37;63.17;101876.50;7363392;19;19943;-60
2023/03/05 03:56:41;;;;;;;;;;;;;;;7.39;61.80;101874.63;7363915;19;20351;-59
2023/03/05 03:59:08;;;;;;;;;;;;;;;7.39;62.36;101872.84;7363814;19;19918;-62
2023/03/05 04:01:36;;;;;;;;;;;;;;;7.42;62.22;101871.78;7361678;19;20298;-60
2023/03/05 04:04:03;;;;;;;;;;;;;;;7.40;62.77;101868.47;7359747;19;20087;-59
2023/03/05 04:06:31;;;;;;;;;;;;;;;7.37;63.30;101872.13;7364025;19;19941;-58
2023/03/05 04:08:59;;;;;;;;;;;;;;;7.31;62.58;101875.19;7360769;19;19922;-61
2023/03/05 04:11:26;;;;;;;;;;;;;;;7.29;62.74;101863.97;7361354;19;19946;-61
2023/03/05 04:13:53;;;;;;;;;;;;;;;7.21;62.52;101869.72;7359915;19;19933;-60
2023/03/05 04:16:20;;;;;;;;;;;;;;;7.21;63.15;101861.06;7363276;19;19945;-59
2023/03/05 04:18:47;;;;;;;;;;;;;;;7.20;62.69;101857.59;7362605;19;20392;-61
2023/03/05 04:21:14;;;;;;;;;;;;;;;7.23;63.05;101851.31;7368194;19;20630;-58
2023/03/05 04:23:40;;;;;;;;;;;;;;;7.23;62.18;101848.69;7361352;19;19926;-60
2023/03/05 04:26:07;;;;;;;;;;;;;;;7.22;61.99;101849.63;7360941;19;19942;-61
2023/03/05 04:28:34;;;;;;;;;;;;;;;7.24;61.95;101847.75;7361285;19;19927;-60
2023/03/05 04:31:02;;;;;;;;;;;;;;;7.26;62.15;101849.28;7358178;19;19927;-59
2023/03/05 04:33:29;;;;;;;;;;;;;;;7.27;63.12;101848.34;7362536;19;19930;-60
2023/03/05 04:35:56;;;;;;;;;;;;;;;7.24;62.25;101842.50;7361040;19;19939;-62
2023/03/05 04:38:23;;;;;;;;;;;;;;;7.21;62.50;101842.75;7361707;19;19922;-59
2023/03/05 04:40:50;;;;;;;;;;;;;;;7.17;62.13;101833.41;7362429;19;20205;-58
2023/03/05 04:43:17;;;;;;;;;;;;;;;7.20;61.84;101834.03;7358205;19;20601;-61
2023/03/05 04:45:44;;;;;;;;;;;;;;;7.24;62.91;101829.44;7361392;19;19926;-58
2023/03/05 04:48:11;;;;;;;;;;;;;;;7.25;62.59;101846.81;7359777;19;19923;-61
2023/03/05 04:50:40;;;;;;;;;;;;;;;7.26;61.99;101832.78;7362888;19;20817;-60
2023/03/05 04:53:07;;;;;;;;;;;;;;;7.29;62.10;101837.78;7358532;19;19931;-56
2023/03/05 04:55:34;;;;;;;;;;;;;;;7.28;61.55;101833.50;7360761;19;20480;-59
2023/03/05 04:58:01;;;;;;;;;;;;;;;7.28;61.60;101829.09;7358202;19;19922;-59
2023/03/05 05:00:28;;;;;;;;;;;;;;;7.27;62.20;101826.59;7357859;19;19927;-61
2023/03/05 05:02:55;;;;;;;;;;;;;;;7.27;61.97;101821.34;7356558;19;19922;-61
2023/03/05 05:05:24;;;;;;;;;;;;;;;7.27;62.02;101819.56;7358895;19;19934;-58
2023/03/05 05:07:54;;;;;;;;;;;;;;;7.31;61.76;101814.97;7358157;19;20240;-60
2023/03/05 05:10:21;;;;;;;;;;;;;;;7.29;61.61;101803.78;7364171;19;19929;-60
2023/03/05 05:12:48;;;;;;;;;;;;;;;7.26;62.30;101799.56;7360671;19;19919;-61
2023/03/05 05:15:14;;;;;;;;;;;;;;;7.25;61.86;101797.06;7358512;19;19942;-58
2023/03/05 05:17:41;;;;;;;;;;;;;;;7.25;62.69;101800.53;7359180;19;21779;-60
2023/03/05 05:20:10;;;;;;;;;;;;;;;7.25;65.37;101792.69;7363232;19;19911;-60
2023/03/05 05:22:37;;;;;;;;;;;;;;;7.22;63.54;101789.44;7362049;19;19949;-59
2023/03/05 05:25:04;;;;;;;;;;;;;;;7.15;62.59;101786.41;7359752;19;19927;-60
2023/03/05 05:27:31;;;;;;;;;;;;;;;7.14;61.93;101789.13;7358666;19;20239;-59
2023/03/05 05:29:59;;;;;;;;;;;;;;;7.16;62.53;101776.78;7357842;19;20345;-58
2023/03/05 05:32:26;;;;;;;;;;;;;;;7.18;62.71;101777.50;7361437;19;21671;-60
2023/03/05 05:34:54;;;;;;;;;;;;;;;7.15;62.00;101782.97;7361975;19;19934;-59
2023/03/05 05:37:22;;;;;;;;;;;;;;;7.17;61.65;101781.06;7359282;19;20330;-60
2023/03/05 05:39:49;;;;;;;;;;;;;;;7.17;62.09;101778.44;7359513;19;19922;-60
2023/03/05 05:42:17;;;;;;;;;;;;;;;7.20;62.04;101776.47;7362008;19;20350;-59
2023/03/05 05:44:44;;;;;;;;;;;;;;;7.24;63.58;101787.56;7358119;19;20315;-61
2023/03/05 05:47:11;;;;;;;;;;;;;;;7.24;62.85;101784.94;7359610;19;19926;-60
2023/03/05 05:49:38;;;;;;;;;;;;;;;7.23;61.95;101780.63;7359792;19;20679;-60
2023/03/05 05:52:05;;;;;;;;;;;;;;;7.21;60.88;101769.47;7358844;19;19937;-61
2023/03/05 05:54:32;;;;;;;;;;;;;;;7.17;61.10;101766.19;7358653;19;20331;-61
2023/03/05 05:56:59;;;;;;;;;;;;;;;7.17;60.88;101757.50;7358943;19;19954;-59
2023/03/05 05:59:26;;;;;;;;;;;;;;;7.14;61.90;101758.56;7358952;19;20415;-66
2023/03/05 06:01:53;;;;;;;;;;;;;;;7.12;60.94;101764.84;7356402;19;19926;-61
2023/03/05 06:04:20;;;;;;;;;;;;;;;7.10;61.40;101756.28;7364680;19;20311;-58
2023/03/05 06:06:47;;;;;;;;;;;;;;;7.07;61.27;101759.94;7366602;19;19953;-61
2023/03/05 06:09:14;;;;;;;;;;;;;;;7.07;61.02;101759.09;7368827;19;20270;-59
2023/03/05 06:11:41;;;;;;;;;;;;;;;7.07;61.51;101759.09;7368809;19;20371;-60
2023/03/05 06:14:09;;;;;;;;;;;;;;;7.08;61.44;101760.78;7367606;19;19936;-60
2023/03/05 06:16:36;;;;;;;;;;;;;;;7.06;61.64;101766.09;7363796;19;19910;-58
2023/03/05 06:19:04;;;;;;;;;;;;;;;7.07;61.99;101761.72;7367702;19;19910;-60
2023/03/05 06:21:31;;;;;;;;;;;;;;;7.06;62.70;101765.28;7365763;19;20379;-60
2023/03/05 06:23:58;;;;;;;;;;;;;;;7.07;62.44;101765.16;7362986;19;20435;-60
2023/03/05 06:26:25;;;;;;;;;;;;;;;7.06;61.61;101760.06;7368975;19;20235;-60
2023/03/05 06:28:52;;;;;;;;;;;;;;;7.04;62.12;101754.94;7364964;19;20533;-58
2023/03/05 06:31:21;;;;;;;;;;;;;;;7.02;60.97;101754.19;7363117;19;19933;-63
2023/03/05 06:33:49;;;;;;;;;;;;;;;7.02;61.66;101746.34;7362712;19;20504;-60
2023/03/05 06:36:18;;;;;;;;;;;;;;;7.01;61.46;101749.88;7364781;19;19990;-59
2023/03/05 06:38:45;;;;;;;;;;;;;;;7.00;60.52;101753.47;7361954;19;20355;-60
2023/03/05 06:41:16;;;;;;;;;;;;;;;7.00;60.49;101750.03;7365885;19;19918;-60
2023/03/05 06:43:43;;;;;;;;;;;;;;;6.98;60.42;101747.50;7365489;19;19922;-58
2023/03/05 06:46:11;;;;;;;;;;;;;;;6.98;60.96;101749.28;7362358;19;20406;-60
2023/03/05 06:48:38;;;;;;;;;;;;;;;6.96;61.54;101741.53;7365153;19;20298;-60
2023/03/05 06:51:11;;;;;;;;;;;;;;;6.96;61.62;101751.19;7364403;19;19915;-61
2023/03/05 06:53:38;;;;;;;;;;;;;;;6.95;61.00;101744.28;7366402;19;20015;-61
2023/03/05 06:56:05;;;;;;;;;;;;;;;6.98;61.09;101741.44;7368618;19;19925;-62
2023/03/05 06:58:31;;;;;;;;;;;;;;;6.98;60.96;101744.03;7363900;19;19934;-59
2023/03/05 07:00:58;;;;;;;;;;;;;;;6.97;60.53;101743.22;7363497;19;19922;-64
2023/03/05 07:03:25;;;;;;;;;;;;;;;6.96;60.00;101745.94;7363569;19;19927;-58
2023/03/05 07:05:52;;;;;;;;;;;;;;;6.96;60.15;101744.13;7366523;19;19949;-56
2023/03/05 07:08:20;;;;;;;;;;;;;;;6.95;60.30;101752.97;7363478;19;19933;-65
2023/03/05 07:10:48;;;;;;;;;;;;;;;6.97;60.32;101751.06;7365814;19;19934;-61
2023/03/05 07:13:15;;;;;;;;;;;;;;;6.98;59.88;101744.88;7362133;19;19923;-59
2023/03/05 07:15:42;;;;;;;;;;;;;;;6.98;59.49;101737.03;7362770;19;19918;-58
2023/03/05 07:18:09;;;;;;;;;;;;;;;6.99;59.70;101746.56;7361546;19;20426;-61
2023/03/05 07:20:36;;;;;;;;;;;;;;;7.00;59.93;101747.41;7365320;19;19930;-60
2023/03/05 07:23:03;;;;;;;;;;;;;;;7.02;60.24;101742.88;7362093;19;19939;-61
2023/03/05 07:25:30;;;;;;;;;;;;;;;7.05;59.22;101740.91;7365772;19;19915;-62
2023/03/05 07:27:57;;;;;;;;;;;;;;;7.04;58.85;101738.41;7364622;19;20279;-60
2023/03/05 07:30:24;;;;;;;;;;;;;;;7.02;58.65;101735.03;7363093;19;20705;-60
2023/03/05 07:32:51;;;;;;;;;;;;;;;6.99;59.51;101736.09;7362272;19;19927;-59
2023/03/05 07:35:18;;;;;;;;;;;;;;;6.96;59.68;101727.63;7363829;19;19941;-67
2023/03/05 07:37:45;;;;;;;;;;;;;;;6.94;59.11;101735.59;7362274;19;19941;-61
2023/03/05 07:40:12;;;;;;;;;;;;;;;6.94;57.98;101730.34;7363337;19;20022;-58
2023/03/05 07:42:39;;;;;;;;;;;;;;;6.93;57.92;101726.06;7364743;19;19938;-59
2023/03/05 07:45:06;;;;;;;;;;;;;;;6.91;57.75;101725.31;7359773;19;19994;-63
2023/03/05 07:47:34;;;;;;;;;;;;;;;6.90;57.81;101731.50;7363367;19;19915;-60
2023/03/05 07:50:02;;;;;;;;;;;;;;;6.89;58.04;101727.22;7360824;19;19923;-60
2023/03/05 07:52:29;;;;;;;;;;;;;;;6.90;58.03;101738.53;7362128;19;19979;-60
2023/03/05 07:54:56;;;;;;;;;;;;;;;6.92;58.10;101729.63;7363212;19;19926;-61
2023/03/05 07:57:23;;;;;;;;;;;;;;;6.95;58.31;101736.44;7359987;19;19918;-62
2023/03/05 07:59:50;;;;;;;;;;;;;;;6.95;57.84;101732.03;7358305;19;19927;-60
2023/03/05 08:02:18;;;;;;;;;;;;;;;6.98;57.60;101728.34;7359616;19;19982;-59
2023/03/05 08:04:45;;;;;;;;;;;;;;;6.96;57.75;101730.25;7360007;19;19930;-62
2023/03/05 08:07:13;;;;;;;;;;;;;;;6.98;57.97;101730.97;7362588;19;20031;-59
2023/03/05 08:09:45;;;;;;;;;;;;;;;7.00;58.16;101724.69;7360358;19;19994;-61
2023/03/05 08:12:12;;;;;;;;;;;;;;;7.04;57.57;101722.69;7365380;19;19990;-61
2023/03/05 08:14:39;;;;;;;;;;;;;;;7.05;56.73;101719.13;7359182;19;20011;-62
2023/03/05 08:17:07;;;;;;;;;;;;;;;7.07;57.38;101715.47;7360701;19;19914;-63
2023/03/05 08:19:33;;;;;;;;;;;;;;;7.06;57.29;101721.63;7359369;19;19926;-59
2023/03/05 08:22:00;;;;;;;;;;;;;;;7.09;57.29;101713.56;7358768;19;20006;-61
2023/03/05 08:24:28;;;;;;;;;;;;;;;7.12;57.67;101713.34;7358347;19;19937;-61
2023/03/05 08:26:58;;;;;;;;;;;;;;;7.15;57.39;101714.94;7359753;19;20512;-62
2023/03/05 08:29:25;;;;;;;;;;;;;;;7.18;56.82;101717.31;7356692;19;19922;-58
2023/03/05 08:31:52;;;;;;;;;;;;;;;7.21;56.82;101717.94;7356574;19;20456;-58
2023/03/05 08:34:20;;;;;;;;;;;;;;;7.23;56.58;101713.44;7358001;19;19923;-59
2023/03/05 08:36:46;;;;;;;;;;;;;;;7.21;57.89;101709.25;7358642;19;19945;-61
2023/03/05 08:39:14;;;;;;;;;;;;;;;7.21;58.02;101712.69;7358723;19;20306;-60
2023/03/05 08:41:40;;;;;;;;;;;;;;;7.23;57.64;101707.34;7359262;19;20470;-60
2023/03/05 08:44:07;;;;;;;;;;;;;;;7.25;57.17;101708.94;7358034;19;20017;-59
2023/03/05 08:46:35;;;;;;;;;;;;;;;7.31;58.10;101707.66;7354837;19;19911;-59
2023/03/05 08:49:02;;;;;;;;;;;;;;;7.32;58.65;101699.69;7357078;19;19942;-61
2023/03/05 08:51:29;;;;;;;;;;;;;;;7.38;57.30;101702.81;7357626;19;19926;-63
2023/03/05 08:53:57;;;;;;;;;;;;;;;7.40;58.33;101699.13;7359405;19;20031;-60
2023/03/05 08:56:26;;;;;;;;;;;;;;;7.42;57.36;101699.00;7358721;19;19926;-60
2023/03/05 08:58:53;;;;;;;;;;;;;;;7.43;57.08;101692.84;7353412;19;19930;-61
2023/03/05 09:01:21;;;;;;;;;;;;;;;7.45;57.13;101694.41;7356637;19;19919;-62
2023/03/05 09:03:48;;;;;;;;;;;;;;;7.47;56.53;101689.03;7358085;19;19923;-60
2023/03/05 09:06:15;;;;;;;;;;;;;;;7.51;56.44;101680.03;7357622;19;21789;-63
2023/03/05 09:08:42;;;;;;;;;;;;;;;7.54;55.77;101688.50;7355757;19;20351;-62
2023/03/05 09:11:10;;;;;;;;;;;;;;;7.58;56.42;101683.88;7356679;19;20500;-59
2023/03/05 09:13:37;;;;;;;;;;;;;;;7.54;55.75;101674.56;7356921;19;20894;-59
2023/03/05 09:16:05;;;;;;;;;;;;;;;7.46;56.03;101666.44;7355298;19;19936;-56
2023/03/05 09:18:35;;;;;;;;;;;;;;;7.45;56.93;101660.38;7355599;19;20276;-59
2023/03/05 09:21:06;;;;;;;;;;;;;;;7.52;55.87;101669.44;7355400;19;19926;-62
2023/03/05 09:23:33;;;;;;;;;;;;;;;7.56;55.69;101668.28;7357381;19;19941;-61
2023/03/05 09:26:00;;;;;;;;;;;;;;;7.58;56.38;101663.75;7358564;19;20006;-59
2023/03/05 09:28:27;;;;;;;;;;;;;;;7.61;55.72;101663.53;7356665;19;19982;-61
2023/03/05 09:30:54;;;;;;;;;;;;;;;7.64;55.89;101658.06;7353837;19;19955;-60
2023/03/05 09:33:20;;;;;;;;;;;;;;;7.67;56.11;101654.38;7357236;19;20544;-60
2023/03/05 09:35:47;;;;;;;;;;;;;;;7.65;55.85;101661.53;7358280;19;19932;-60
2023/03/05 09:38:17;;;;;;;;;;;;;;;7.69;55.62;101653.31;7357354;19;19929;-60
2023/03/05 09:40:50;;;;;;;;;;;;;;;7.76;55.16;101647.63;7356020;19;19931;-61
2023/03/05 09:43:20;;;;;;;;;;;;;;;7.78;55.44;101643.94;7356091;19;19915;-61
2023/03/05 09:45:57;;;;;;;;;;;;;;;7.78;55.89;101630.84;7353072;19;19935;-60
2023/03/05 09:48:37;;;;;;;;;;;;;;;7.82;55.49;101641.94;7354721;19;19914;-62
2023/03/05 09:51:04;;;;;;;;;;;;;;;7.87;55.40;101637.19;7354659;19;19990;-56
2023/03/05 09:53:34;;;;;;;;;;;;;;;7.92;55.22;101646.38;7353440;19;19919;-60
2023/03/05 09:56:03;;;;;;;;;;;;;;;7.88;55.26;101644.91;7355724;19;19915;-57
2023/03/05 09:58:33;;;;;;;;;;;;;;;7.87;55.92;101630.19;7353431;19;20002;-58
2023/03/05 10:01:02;;;;;;;;;;;;;;;7.86;55.01;101638.97;7352430;19;19947;-60
2023/03/05 10:03:34;;;;;;;;;;;;;;;7.81;55.38;101635.88;7354908;19;20211;-60
2023/03/05 10:06:04;;;;;;;;;;;;;;;7.79;56.04;101635.13;7353035;19;19919;-62
2023/03/05 10:08:40;;;;;;;;;;;;;;;7.81;55.51;101617.53;7354503;19;19922;-61
2023/03/05 10:11:19;;;;;;;;;;;;;;;7.83;55.92;101613.00;7354702;19;20309;-62
2023/03/05 10:13:46;;;;;;;;;;;;;;;7.90;55.24;101618.63;7355814;19;20403;-61
2023/03/05 10:16:16;;;;;;;;;;;;;;;7.94;55.41;101620.03;7352477;19;19939;-58
2023/03/05 10:18:46;;;;;;;;;;;;;;;7.96;55.55;101607.69;7356446;19;21856;-60
2023/03/05 10:21:15;;;;;;;;;;;;;;;7.99;54.84;101605.66;7364649;19;19926;-61
2023/03/05 10:23:48;;;;;;;;;;;;;;;8.04;55.09;101600.88;7355243;19;20039;-61
2023/03/05 10:26:15;;;;;;;;;;;;;;;8.09;54.62;101598.75;7355579;19;19915;-62
2023/03/05 10:28:45;;;;;;;;;;;;;;;8.09;55.29;101596.13;7356617;19;19951;-62
2023/03/05 10:31:15;;;;;;;;;;;;;;;8.11;54.74;101590.78;7353266;19;19963;-59
2023/03/05 10:33:45;;;;;;;;;;;;;;;8.15;54.95;101590.44;7354363;19;19930;-60
2023/03/05 10:36:15;;;;;;;;;;;;;;;8.21;54.71;101588.28;7349754;19;19947;-60
2023/03/05 10:38:44;;;;;;;;;;;;;;;8.20;55.29;101584.81;7354758;19;20007;-60
2023/03/05 10:41:13;;;;;;;;;;;;;;;8.16;55.47;101586.03;7355690;19;19927;-60
2023/03/05 10:43:41;;;;;;;;;;;;;;;8.14;55.31;101580.88;7351216;19;19969;-60
2023/03/05 10:46:13;;;;;;;;;;;;;;;8.14;55.55;101574.81;7349138;19;19923;-61
2023/03/05 10:48:43;;;;;;;;;;;;;;;8.16;55.46;101573.75;7351231;19;19926;-60
2023/03/05 10:51:14;;;;;;;;;;;;;;;8.14;55.14;101574.81;7353837;19;20002;-61
2023/03/05 10:53:44;;;;;;;;;;;;;;;8.06;56.14;101564.94;7356535;19;19911;-61
2023/03/05 10:56:11;;;;;;;;;;;;;;;8.00;56.42;101562.78;7362395;19;19930;-62
2023/03/05 10:58:38;;;;;;;;;;;;;;;7.99;56.08;101555.03;7360605;19;20290;-62
2023/03/05 11:01:05;;;;;;;;;;;;;;;8.00;57.62;101554.09;7362589;19;19926;-59
2023/03/05 11:03:35;;;;;;;;;;;;;;;7.99;56.45;101553.25;7364549;19;20170;-61
2023/03/05 11:06:02;;;;;;;;;;;;;;;7.95;56.28;101558.84;7365677;19;19994;-61
2023/03/05 11:08:31;;;;;;;;;;;;;;;7.88;56.08;101563.72;7364920;19;19919;-59
2023/03/05 11:11:01;;;;;;;;;;;;;;;7.80;56.49;101547.75;7364586;19;19915;-63
2023/03/05 11:13:29;;;;;;;;;;;;;;;7.72;57.00;101544.88;7363029;19;20391;-59
2023/03/05 11:15:58;;;;;;;;;;;;;;;7.64;56.24;101542.84;7362878;19;19920;-60
2023/03/05 11:18:25;;;;;;;;;;;;;;;7.61;57.27;101540.47;7363610;19;20375;-59
2023/03/05 11:21:05;;;;;;;;;;;;;;;7.60;57.16;101533.56;7363691;19;19919;-58
2023/03/05 11:23:32;;;;;;;;;;;;;;;7.50;56.61;101526.50;7358490;19;19955;-58
2023/03/05 11:26:03;;;;;;;;;;;;;;;7.43;58.09;101518.28;7358568;19;19951;-61
2023/03/05 11:28:34;;;;;;;;;;;;;;;7.41;57.65;101512.34;7357205;19;20423;-57
2023/03/05 11:31:06;;;;;;;;;;;;;;;7.44;57.10;101524.34;7358531;19;19941;-59
2023/03/05 11:33:34;;;;;;;;;;;;;;;7.42;57.56;101524.44;7357653;19;20563;-58
2023/03/05 11:36:04;;;;;;;;;;;;;;;7.45;56.80;101512.94;7358743;19;20371;-58
2023/03/05 11:38:31;;;;;;;;;;;;;;;7.49;56.54;101515.19;7356909;19;19929;-58
2023/03/05 11:41:00;;;;;;;;;;;;;;;7.52;56.56;101508.88;7359294;19;20019;-60
2023/03/05 11:43:29;;;;;;;;;;;;;;;7.54;56.43;101501.75;7358215;19;19941;-57
2023/03/05 11:46:00;;;;;;;;;;;;;;;7.53;56.88;101503.53;7355538;19;19962;-58
2023/03/05 11:48:32;;;;;;;;;;;;;;;7.56;56.61;101500.72;7358446;19;20589;-60
2023/03/05 11:51:00;;;;;;;;;;;;;;;7.60;56.53;101496.91;7359086;19;20021;-60
2023/03/05 11:53:28;;;;;;;;;;;;;;;7.60;57.51;101493.44;7358937;19;20607;-59
2023/03/05 11:55:58;;;;;;;;;;;;;;;7.52;56.29;101491.38;7359865;19;19949;-59
2023/03/05 11:58:31;;;;;;;;;;;;;;;7.46;55.93;101477.97;7358323;19;19983;-60
2023/03/05 12:00:59;;;;;;;;;;;;;;;7.41;55.96;101483.53;7355989;19;19921;-62
2023/03/05 12:03:30;;;;;;;;;;;;;;;7.41;55.82;101485.31;7356688;19;19927;-58
2023/03/05 12:06:01;;;;;;;;;;;;;;;7.40;56.15;101487.09;7357660;19;19919;-59
2023/03/05 12:08:34;;;;;;;;;;;;;;;7.38;56.66;101472.44;7358253;19;19978;-61
2023/03/05 12:11:04;;;;;;;;;;;;;;;7.37;55.94;101468.16;7361695;19;19926;-58
2023/03/05 12:13:33;;;;;;;;;;;;;;;7.41;55.31;101467.84;7315587;19;20591;-60
2023/03/05 12:16:03;;;;;;;;;;;;;;;7.44;56.21;101464.97;7354342;19;19926;-59
2023/03/05 12:18:36;;;;;;;;;;;;;;;7.43;56.94;101459.84;7353273;19;20559;-58
2023/03/05 12:21:06;;;;;;;;;;;;;;;7.40;55.73;101453.06;7353706;19;19926;-57
2023/03/05 12:23:36;;;;;;;;;;;;;;;7.38;56.05;101443.66;7353456;19;19937;-59
2023/03/05 12:26:03;;;;;;;;;;;;;;;7.42;55.55;101439.84;7351894;19;19919;-59
2023/03/05 12:28:31;;;;;;;;;;;;;;;7.45;55.85;101437.00;7350814;19;19923;-58
2023/03/05 12:31:04;;;;;;;;;;;;;;;7.47;56.31;101422.84;7348335;19;19926;-58
2023/03/05 12:33:35;;;;;;;;;;;;;;;7.50;56.86;101413.94;7349451;19;20213;-57
2023/03/05 12:36:05;;;;;;;;;;;;;;;7.55;55.81;101417.88;7355948;19;19922;-60
2023/03/05 12:38:33;;;;;;;;;;;;;;;7.59;56.14;101410.59;7355860;19;20607;-60
2023/03/05 12:41:03;;;;;;;;;;;;;;;7.58;55.32;101401.91;7359224;19;19926;-56
2023/03/05 12:43:31;;;;;;;;;;;;;;;7.69;56.38;101394.06;7354990;19;19929;-57
2023/03/05 12:46:01;;;;;;;;;;;;;;;7.76;55.71;101388.34;7352499;19;19938;-58
2023/03/05 12:48:29;;;;;;;;;;;;;;;7.82;55.98;101385.25;7355347;19;19914;-57
2023/03/05 12:50:58;;;;;;;;;;;;;;;7.83;54.75;101384.25;7355730;19;19922;-61